»·PEaware :: N744BA KMHV-KHND

N744BA :: KMHV-KHND

FLIGHT INFORMATION

Flight Status: Arrived
Operator: Privately registered:
United States
More flights under this callsign
Pilot: Anonymous 31222 (31222)
Aircraft: BEECH AIRCRAFT BONANZA
(BE36)
More flights by this aircraft type
Origin: KMHV Mojave
United States
Destination: KHND Henderson
United States
More flights between these airports :: More routes between these airports
Route:
File this flight plan on PilotEdge
Remarks:
Altitude:
(Current/Filed)
5,500ft
Speed:
(Current/Filed)
0kts
Departed: 02-Mar-23 02:14 PM
Arrived: 02-Mar-23 03:31 PM
Distance/Time
Traveled:
157nm/1:17
Distance/Time
To Go:
Arrived

Flight Plot

Page will automatically refresh every two minutes.

Flight plan parsing failed; only flown route is shown


Map Options




Map Legend


Flown Route
Filed Route
Departure Airport
Arrival Airport
Navaid (VOR, NDB)
Fix

Horizontal Profiles

Position Reports

Time Latitude Longitude Heading Altitude Ground
Speed
02-Mar-23 14:00 35.057343 -118.157749 269 2765ft 0kts
02-Mar-23 14:01 35.057343 -118.157749 269 2765ft 0kts
02-Mar-23 14:02 35.057343 -118.157749 269 2765ft 0kts
02-Mar-23 14:03 35.057597 -118.156623 95 2763ft 9kts
02-Mar-23 14:04 35.057572 -118.152824 91 2756ft 12kts
02-Mar-23 14:05 35.057595 -118.149085 91 2749ft 10kts
02-Mar-23 14:06 35.057581 -118.145148 90 2740ft 12kts
02-Mar-23 14:08 35.058034 -118.142625 356 2737ft 6kts
02-Mar-23 14:09 35.058349 -118.142628 0 2737ft 0kts
02-Mar-23 14:10 35.058348 -118.142628 0 2737ft 0kts
02-Mar-23 14:11 35.058348 -118.142628 0 2737ft 0kts
02-Mar-23 14:12 35.058348 -118.142628 0 2737ft 0kts
02-Mar-23 14:13 35.058405 -118.142628 359 2737ft 2kts
02-Mar-23 14:14 35.059303 -118.151656 272 2781ft 83kts
02-Mar-23 14:15 35.061528 -118.181386 318 3621ft 90kts
02-Mar-23 14:16 35.082766 -118.165664 55 4424ft 113kts
02-Mar-23 14:17 35.099406 -118.132568 53 5303ft 120kts
02-Mar-23 14:18 35.122038 -118.099773 43 5564ft 135kts
02-Mar-23 14:19 35.149478 -118.066181 52 5218ft 141kts
02-Mar-23 14:20 35.175069 -118.030543 44 4929ft 137kts
02-Mar-23 14:21 35.202146 -117.998385 39 5114ft 139kts
02-Mar-23 14:22 35.234547 -117.973019 36 5330ft 136kts
02-Mar-23 14:23 35.262650 -117.940979 39 5557ft 140kts
02-Mar-23 14:24 35.293923 -117.907582 40 5607ft 152kts
02-Mar-23 14:25 35.323540 -117.868528 47 5547ft 156kts
02-Mar-23 14:26 35.350771 -117.827443 54 5525ft 155kts
02-Mar-23 14:27 35.374163 -117.783319 62 5515ft 154kts
02-Mar-23 14:28 35.393998 -117.736543 61 5484ft 155kts
02-Mar-23 14:29 35.410625 -117.688122 75 5456ft 155kts
02-Mar-23 14:30 35.427715 -117.639800 54 5422ft 154kts
02-Mar-23 14:31 35.463879 -117.617938 345 5311ft 161kts
02-Mar-23 14:31 35.497929 -117.626890 22 5359ft 153kts
02-Mar-23 14:33 35.529290 -117.581319 55 5327ft 156kts
02-Mar-23 14:34 35.558293 -117.543205 43 5398ft 151kts
02-Mar-23 14:35 35.585857 -117.504475 47 5436ft 151kts
02-Mar-23 14:36 35.615727 -117.467434 48 5426ft 152kts
02-Mar-23 14:36 35.638435 -117.434538 49 5455ft 152kts
02-Mar-23 14:37 35.665523 -117.394461 51 5471ft 152kts
02-Mar-23 14:38 35.693297 -117.355673 29 5453ft 154kts
02-Mar-23 14:40 35.742530 -117.347385 4 5584ft 149kts
02-Mar-23 14:41 35.781480 -117.342119 12 6171ft 128kts
02-Mar-23 14:41 35.808197 -117.336049 13 6781ft 116kts
02-Mar-23 14:42 35.832544 -117.315220 76 7338ft 116kts
02-Mar-23 14:43 35.833202 -117.275208 81 7905ft 116kts
02-Mar-23 14:44 35.839266 -117.236088 70 8458ft 116kts
02-Mar-23 14:46 35.851717 -117.192366 69 9100ft 116kts
02-Mar-23 14:46 35.861057 -117.159402 68 9308ft 133kts
02-Mar-23 14:47 35.872193 -117.115123 73 9584ft 136kts
02-Mar-23 14:48 35.885746 -117.067674 67 9505ft 153kts
02-Mar-23 14:49 35.901502 -117.017941 67 9483ft 157kts
02-Mar-23 14:50 35.921999 -116.971082 66 9528ft 156kts
02-Mar-23 14:51 35.943615 -116.924742 52 9576ft 157kts
02-Mar-23 14:52 35.961147 -116.876216 76 9625ft 156kts
02-Mar-23 14:53 35.969497 -116.822077 77 9566ft 159kts
02-Mar-23 14:54 35.977451 -116.768424 83 9588ft 157kts
02-Mar-23 14:55 35.980827 -116.714421 90 9502ft 158kts
02-Mar-23 14:56 35.983628 -116.660338 74 9425ft 158kts
02-Mar-23 14:57 35.996171 -116.608487 70 9376ft 156kts
02-Mar-23 14:58 36.010248 -116.558701 68 9456ft 151kts
02-Mar-23 14:59 36.025551 -116.509625 81 9520ft 147kts
02-Mar-23 15:00 36.031405 -116.457741 68 9371ft 156kts
02-Mar-23 15:01 36.030348 -116.404538 101 9281ft 161kts
02-Mar-23 15:02 36.015021 -116.352816 115 9209ft 161kts
02-Mar-23 15:03 35.990525 -116.306134 123 9140ft 162kts
02-Mar-23 15:04 35.973848 -116.255169 105 9074ft 160kts
02-Mar-23 15:05 35.961425 -116.202379 102 8710ft 161kts
02-Mar-23 15:06 35.951030 -116.149233 104 8137ft 158kts
02-Mar-23 15:07 35.936788 -116.098290 109 7677ft 155kts
02-Mar-23 15:08 35.925862 -116.047139 102 7756ft 150kts
02-Mar-23 15:09 35.911315 -115.997797 110 8005ft 159kts
02-Mar-23 15:10 35.897667 -115.943399 103 7905ft 175kts
02-Mar-23 15:11 35.884991 -115.883317 106 7641ft 182kts
02-Mar-23 15:12 35.869163 -115.829034 108 7862ft 164kts
02-Mar-23 15:13 35.852046 -115.777172 112 7664ft 166kts
02-Mar-23 15:14 35.835984 -115.724928 111 7557ft 161kts
02-Mar-23 15:15 35.817975 -115.675371 111 7555ft 155kts
02-Mar-23 15:16 35.799328 -115.627719 116 7545ft 154kts
02-Mar-23 15:17 35.784235 -115.578054 103 7738ft 152kts
02-Mar-23 15:18 35.781810 -115.524495 73 7359ft 152kts
02-Mar-23 15:19 35.786733 -115.474631 88 6996ft 152kts
02-Mar-23 15:20 35.782129 -115.425021 97 6617ft 147kts
02-Mar-23 15:21 35.775965 -115.374532 95 6040ft 147kts
02-Mar-23 15:22 35.792531 -115.329941 33 5318ft 152kts
02-Mar-23 15:23 35.820946 -115.293566 50 4725ft 147kts
02-Mar-23 15:24 35.850151 -115.256708 44 4479ft 149kts
02-Mar-23 15:25 35.881568 -115.223453 38 4162ft 145kts
02-Mar-23 15:26 35.910212 -115.194857 42 3982ft 123kts
02-Mar-23 15:27 35.928271 -115.163698 64 3844ft 113kts
02-Mar-23 15:28 35.943568 -115.135674 0 3109ft 102kts
02-Mar-23 15:29 35.968728 -115.135426 359 2462ft 57kts
02-Mar-23 15:30 35.970943 -115.136322 296 2447ft 3kts
02-Mar-23 15:31 35.973640 -115.136413 1 2434ft 11kts
02-Mar-23 15:32 35.975320 -115.136913 1 2426ft 9kts
02-Mar-23 15:33 35.976441 -115.137862 271 2418ft 4kts
02-Mar-23 15:34 35.975962 -115.138251 87 2420ft 3kts
02-Mar-23 15:35 35.975724 -115.137594 181 2423ft 0kts
02-Mar-23 15:36 35.975690 -115.137518 4 2423ft 4kts
02-Mar-23 15:37 35.975823 -115.137523 358 2422ft 0kts
02-Mar-23 15:38 35.975823 -115.137523 358 2422ft 0kts

Navigation Log

Ident Type
Flight plan parsing failed, navigation log unavailable